Terminal Aerodrome Forecast
Issued by NWS Tulsa, OK

Home | Current Version | Previous Version | Text Only | Print | Product List | Glossary On
Versions: 1 2 3 4 5 6 7 8 9 10 11 12 13 14 15 16 17 18 19 20 21
000
FTUS44 KTSA 181700
TAFFSM
TAF
KFSM 181738Z 1818/1918 02006KT P6SM RA OVC090
     FM182000 08004KT P6SM BKN050
     FM190800 06004KT 4SM BR BKN015 PROB30 1908/1914 -TSRA OVC015CB
     FM191500 07004KT P6SM BKN050=

USA.gov is the U.S. government's official web portal to all federal, state and local government web resources and services.